METAR KMEB 192352Z AUTO 09005KT 4SM RA BR BKN007 OVC055 03/02 A3011 RMK AO2 UPE11B28E33RAB11 PRESFR SLP196 P0003 60029 T00280022 10039 20022 51001 
METAR KMEB 192252Z AUTO 06006KT 6SM UP BR BKN007 BKN030 OVC049 03/02 A3010 RMK AO2 RAB16E51 SLP194 P0001 T00280022 
METAR KMEB 192152Z AUTO 02009KT 5SM UP BR BKN005 OVC011 03/02 A3012 RMK AO2 RAE2058B27E41UPB2058 CIG 003V007 PRESRR SLP201 P0000 T00280022 
SPECI KMEB 192125Z AUTO 05008KT 4SM UP BR BKN008 BKN013 OVC050 03/02 A3010 RMK AO2 RAE2058UPB2058 PRESFR P0000 
SPECI KMEB 192106Z AUTO 05007KT 7SM UP SCT008 BKN011 OVC024 03/02 A3013 RMK AO2 RAE2058UPB2058 PRESRR P0000 
SPECI KMEB 192059Z AUTO 04008KT 6SM UP BR BKN008 OVC026 03/02 A3012 RMK AO2 RAE58UPB58 P0000 
METAR KMEB 192052Z AUTO 05008KT 4SM -RA BR SCT008 OVC026 03/02 A3010 RMK AO2 SLP194 P0007 60025 T00280022 58022 
SPECI KMEB 192044Z AUTO 05011KT 3SM RA BR FEW008 OVC028 03/02 A3010 RMK AO2 PRESFR P0007 
SPECI KMEB 192034Z AUTO 03008KT 2 1/2SM RA BR SCT008 OVC032 03/02 A3014 RMK AO2 P0005 
METAR KMEB 191952Z AUTO 05007KT 4SM -RA BR BKN008 OVC015 03/03 A3014 RMK AO2 SLP207 P0012 T00330028 
SPECI KMEB 191945Z AUTO 04008KT 3SM -RA BR FEW006 OVC013 03/03 A3013 RMK AO2 P0011 
SPECI KMEB 191919Z AUTO 04007KT 3SM RA BR FEW008 BKN015 OVC027 03/03 A3014 RMK AO2 P0007 
SPECI KMEB 191911Z AUTO 02006KT 2 1/2SM RA BR OVC015 03/03 A3016 RMK AO2 P0005 
SPECI KMEB 191857Z AUTO 03009KT 2 1/2SM RA BR FEW009 OVC013 03/03 A3015 RMK AO2 P0002 
METAR KMEB 191852Z AUTO 02007KT 3SM RA BR SCT009 OVC015 03/03 A3015 RMK AO2 SLP212 P0006 T00330028 
SPECI KMEB 191801Z AUTO 04010KT 4SM -RA BR FEW007 BKN012 OVC023 03/03 A3015 RMK AO2 P0000 
METAR KMEB 191752Z AUTO 03009KT 3SM -RA BR SCT007 BKN025 OVC048 03/03 A3017 RMK AO2 SLP216 P0007 60018 T00330028 10050 20033 58007 
SPECI KMEB 191726Z AUTO 04009KT 3SM RA BR FEW009 BKN025 OVC065 03/03 A3018 RMK AO2 PRESFR P0004 
SPECI KMEB 191716Z AUTO 03008KT 3SM RA BR FEW011 BKN025 OVC065 04/03 A3021 RMK AO2 P0003 
SPECI KMEB 191709Z AUTO 03010KT 2 1/2SM RA BR FEW011 BKN025 OVC050 04/03 A3021 RMK AO2 P0003 
METAR KMEB 191652Z AUTO 03007KT 2 1/2SM RA BR SCT011 BKN031 OVC050 04/03 A3022 RMK AO2 SLP234 P0007 T00390028 
METAR KMEB 191552Z AUTO 03007KT 3SM RA BR OVC045 04/03 A3022 RMK AO2 SLP233 P0004 T00440028 
METAR KMEB 191452Z AUTO 03010KT 6SM -RA BR OVC045 05/03 A3019 RMK AO2 SLP223 P0000 60000 T00500028 53000 
METAR KMEB 191352Z AUTO 03006KT 4SM -RA BR OVC045 05/04 A3018 RMK AO2 RAB09 SLP221 P0000 T00500039 
METAR KMEB 191252Z AUTO 01006KT 5SM BR OVC047 05/03 A3017 RMK AO2 RAB1153E22 SLP218 P0000 T00500033 
METAR KMEB 191152Z AUTO 01004KT 5SM BR OVC047 05/04 A3019 RMK AO2 SLP222 60000 T00500039 10050 20044 55003 
METAR KMEB 191052Z AUTO 05003KT 6SM BR SCT047 OVC055 04/04 A3015 RMK AO2 RAB40E50 SLP209 P0000 T00440039 
METAR KMEB 190952Z AUTO 36005KT 6SM BR OVC045 04/04 A3018 RMK AO2 RAE47 SLP219 P0000 T00440039 
METAR KMEB 190852Z AUTO 34004KT 5SM -RA BR BKN043 OVC055 04/04 A3020 RMK AO2 SLP226 P0000 60000 T00440039 55003 
METAR KMEB 190752Z AUTO 00000KT 5SM -RA BR BKN060 OVC075 04/03 A3019 RMK AO2 RAE08B52 SLP225 P0000 T00440033 
METAR KMEB 190652Z AUTO 35003KT 6SM -RA BR BKN055 OVC075 04/03 A3018 RMK AO2 SLP222 P0000 T00440033 
METAR KMEB 190552Z AUTO 30003KT 6SM -RA BR SCT065 OVC080 05/04 A3020 RMK AO2 RAB12 SLP229 P0000 60000 T00500039 10067 20044 55002 
METAR KMEB 190452Z AUTO 31005KT 7SM BKN090 05/04 A3020 RMK AO2 PRESRR SLP228 T00500039 400780011 
METAR KMEB 190352Z AUTO 21003KT 8SM CLR 05/03 A3016 RMK AO2 SLP213 T00500033 
METAR KMEB 190252Z AUTO 26004KT 9SM SCT090 SCT110 05/03 A3021 RMK AO2 RAE08 SLP231 P0000 60000 T00500033 58005 
METAR KMEB 190152Z AUTO 27003KT 8SM -RA BKN075 OVC095 06/03 A3023 RMK AO2 RAE07B25 SLP236 P0000 T00560033 
METAR KMEB 190052Z AUTO 22004KT 9SM -RA BKN060 OVC090 06/04 A3022 RMK AO2 RAB05 SLP233 P0000 T00560044 
METAR KMEB 182352Z AUTO 30003KT 10SM OVC070 07/02 A3022 RMK AO2 SLP235 T00670017 10078 20067 53010 
METAR KMEB 182252Z AUTO 00000KT 10SM BKN090 07/01 A3018 RMK AO2 SLP222 T00670006 
METAR KMEB 182152Z AUTO 00000KT 10SM CLR 07/M02 A3020 RMK AO2 SLP226 T00721022 
METAR KMEB 182052Z AUTO 00000KT 10SM CLR 08/M03 A3019 RMK AO2 PRESFR SLP225 T00781028 58010 
METAR KMEB 181952Z AUTO 36003KT 10SM CLR 08/M03 A3021 RMK AO2 SLP231 T00781028 
METAR KMEB 181852Z AUTO 00000KT 10SM CLR 08/M03 A3023 RMK AO2 SLP237 T00781033 
METAR KMEB 181752Z AUTO VRB04KT 10SM CLR 07/M03 A3023 RMK AO2 SLP236 T00721028 10078 20011 58023 
METAR KMEB 181652Z AUTO 03005KT 10SM CLR 07/M03 A3026 RMK AO2 SLP247 T00671033 
METAR KMEB 181552Z AUTO 06009KT 10SM CLR 07/M03 A3028 RMK AO2 SLP252 T00671033 
METAR KMEB 181452Z AUTO 04011KT 10SM CLR 06/M03 A3029 RMK AO2 SLP258 T00611033 50013 
METAR KMEB 181352Z AUTO 05009KT 10SM CLR 04/M03 A3030 RMK AO2 SLP261 T00391033 
METAR KMEB 181252Z AUTO 01005KT 10SM CLR 02/M03 A3028 RMK AO2 SLP255 T00171033 
METAR KMEB 181152Z AUTO 02005KT 10SM CLR 01/M04 A3026 RMK AO2 SLP246 T00111039 10044 20011 53017 
METAR KMEB 181052Z AUTO 03007KT 10SM CLR 02/M03 A3023 RMK AO2 SLP236 T00221033 
METAR KMEB 180952Z AUTO 03008KT 10SM CLR 03/M04 A3021 RMK AO2 SLP230 T00281039 
METAR KMEB 180852Z AUTO 01007KT 10SM CLR 03/M03 A3021 RMK AO2 SLP228 T00331033 51021 
METAR KMEB 180752Z AUTO 02009KT 10SM CLR 04/M02 A3019 RMK AO2 SLP223 T00391022 
METAR KMEB 180652Z AUTO 01007KT 10SM CLR 04/M01 A3017 RMK AO2 SLP218 T00391006 
METAR KMEB 180552Z AUTO 01007KT 10SM CLR 04/01 A3014 RMK AO2 SLP207 T00440006 10094 20044 52018 
METAR KMEB 180452Z AUTO 36007KT 10SM CLR 06/02 A3013 RMK AO2 SLP201 T00610022 401220056 
METAR KMEB 180352Z AUTO 34005KT 4SM BR CLR 06/06 A3011 RMK AO2 SLP195 T00610061 
METAR KMEB 180252Z AUTO 33004KT 3SM BR CLR 07/07 A3009 RMK AO2 SLP189 T00720072 51026 
SPECI KMEB 180237Z AUTO 31003KT 3SM BR CLR 07/07 A3009 RMK AO2 
METAR KMEB 180152Z AUTO 00000KT 2 1/2SM BR CLR 06/06 A3007 RMK AO2 SLP182 T00610061 
METAR KMEB 180052Z AUTO 28003KT 4SM BR CLR 08/08 A3003 RMK AO2 SLP170 T00780078 
METAR KMEB 172352Z AUTO 27005KT 6SM BR CLR 09/08 A3001 RMK AO2 SLP163 T00940083 10122 20094 51029 
METAR KMEB 172252Z AUTO 27003KT 7SM CLR 11/09 A2998 RMK AO2 SLP150 T01060094 
METAR KMEB 172152Z AUTO 27005KT 7SM CLR 12/09 A2997 RMK AO2 SLP148 T01170094 
METAR KMEB 172052Z AUTO 31005KT 9SM CLR 12/09 A2992 RMK AO2 SLP133 T01170094 51010 
METAR KMEB 171952Z AUTO 30006KT 10SM CLR 12/09 A2992 RMK AO2 SLP130 T01170089 
SPECI KMEB 171932Z AUTO 32007KT 10SM SCT017 12/09 A2991 RMK AO2 
METAR KMEB 171852Z AUTO 30006KT 10SM OVC015 12/10 A2990 RMK AO2 SLP126 T01220100 
SPECI KMEB 171822Z AUTO 30005KT 10SM OVC015 12/10 A2989 RMK AO2 
SPECI KMEB 171807Z AUTO 29006KT 9SM OVC013 12/10 A2990 RMK AO2 
SPECI KMEB 171800Z AUTO 31007KT 10SM OVC015 12/10 A2990 RMK AO2 
METAR KMEB 171752Z AUTO 31006KT 10SM OVC013 12/10 A2989 RMK AO2 SLP122 60000 T01170100 10117 20089 58009 
SPECI KMEB 171745Z AUTO 31005KT 10SM OVC013 12/10 A2990 RMK AO2 
METAR KMEB 171652Z AUTO 29007KT 9SM OVC009 12/11 A2990 RMK AO2 SLP124 T01170106 
SPECI KMEB 171611Z AUTO 29005KT 9SM BKN008 OVC014 11/10 A2991 RMK AO2 CIG 007V012 
SPECI KMEB 171606Z AUTO 28006KT 9SM OVC014 11/10 A2992 RMK AO2 
METAR KMEB 171552Z AUTO 27008KT 9SM FEW008 OVC016 11/10 A2992 RMK AO2 SLP133 T01110100 
SPECI KMEB 171540Z AUTO 29006KT 9SM BKN009 BKN016 OVC020 11/10 A2992 RMK AO2 CIG 007V012 
SPECI KMEB 171509Z AUTO 30007KT 8SM FEW009 OVC024 11/10 A2992 RMK AO2 
METAR KMEB 171452Z AUTO 27006KT 8SM OVC026 11/10 A2992 RMK AO2 SLP132 60000 T01060100 57000 
SPECI KMEB 171433Z AUTO 26005KT 7SM OVC028 11/09 A2992 RMK AO2 
METAR KMEB 171352Z AUTO 24007KT 6SM BR BKN036 OVC060 10/09 A2993 RMK AO2 SLP134 T01000089 
SPECI KMEB 171303Z AUTO 24007KT 4SM BR SCT027 SCT041 OVC055 09/09 A2991 RMK AO2 
METAR KMEB 171252Z AUTO 22004KT 3SM BR BKN027 BKN034 OVC055 09/08 A2991 RMK AO2 RAE27 SLP129 P0000 T00890083 
METAR KMEB 171152Z AUTO 22006KT 4SM -RA BR SCT016 OVC026 09/08 A2992 RMK AO2 RAB31 SLP132 P0001 60005 70005 T00890083 10117 20083 51008 
METAR KMEB 171052Z AUTO 28003KT 8SM OVC020 09/08 A2992 RMK AO2 SLP130 T00890083 
METAR KMEB 170952Z AUTO 31004KT 8SM OVC022 09/08 A2992 RMK AO2 RAE29 SLP130 P0002 T00890078 
METAR KMEB 170852Z AUTO 31003KT 4SM RA BR OVC026 09/08 A2990 RMK AO2 SLP123 P0002 60002 T00890078 55003 
SPECI KMEB 170825Z AUTO 31005KT 7SM -RA OVC024 09/08 A2990 RMK AO2 P0000 
METAR KMEB 170752Z AUTO 21005KT 10SM -RA BKN047 BKN060 OVC100 09/07 A2988 RMK AO2 SLP119 P0000 T00940072 
METAR KMEB 170652Z AUTO 25005KT 10SM -RA BKN070 OVC100 11/06 A2991 RMK AO2 RAB39 SLP126 P0000 T01060061 
METAR KMEB 170552Z AUTO 22008KT 10SM FEW090 SCT110 12/05 A2991 RMK AO2 PRESFR SLP125 T01170050 10122 20111 56034 
METAR KMEB 170452Z AUTO 23007KT 10SM CLR 12/05 A2994 RMK AO2 SLP137 T01170050 401561011 
METAR KMEB 170352Z AUTO 21008KT 10SM CLR 11/06 A2996 RMK AO2 SLP144 T01110056 
METAR KMEB 170252Z AUTO 20005KT 10SM BKN110 11/06 A3000 RMK AO2 SLP160 T01110056 56008 
METAR KMEB 170152Z AUTO 21005KT 10SM BKN070 OVC095 12/06 A3002 RMK AO2 SLP164 T01170056 
METAR KMEB 170052Z AUTO 18006KT 10SM OVC085 12/04 A3001 RMK AO2 SLP162 T01220044